createdAt,value
2019-04-21T00:01:55.955Z,44.41
2019-04-21T00:04:38.029Z,44.67
2019-04-21T00:07:13.175Z,44.62
2019-04-21T00:09:50.666Z,44.71
2019-04-21T00:12:07.466Z,44.42
2019-04-21T00:14:31.492Z,44.49
2019-04-21T00:16:57.530Z,44.49
2019-04-21T00:19:28.805Z,44.60
2019-04-21T00:22:05.840Z,44.59
2019-04-21T00:24:39.842Z,44.54
2019-04-21T00:27:09.675Z,44.72
2019-04-21T00:32:07.315Z,44.84
2019-04-21T00:34:21.784Z,44.88
2019-04-21T00:37:00.094Z,44.85
2019-04-21T00:39:49.084Z,44.64
2019-04-21T00:42:08.416Z,44.62
2019-04-21T00:44:28.395Z,44.54
2019-04-21T00:47:04.146Z,44.18
2019-04-21T00:49:34.370Z,43.98
2019-04-21T00:52:37.965Z,43.99
2019-04-21T00:55:11.007Z,44.10
2019-04-21T00:57:35.588Z,44.22
2019-04-21T01:00:00.810Z,44.14
2019-04-21T01:02:29.754Z,44.32
2019-04-21T01:05:02.087Z,44.32
2019-04-21T01:07:30.535Z,44.24
2019-04-21T01:09:48.607Z,44.39
2019-04-21T01:12:29.794Z,44.66
2019-04-21T01:14:55.383Z,44.96
2019-04-21T01:17:21.718Z,45.01
2019-04-21T01:19:46.421Z,45.12
2019-04-21T01:22:01.371Z,45.31
2019-04-21T01:24:34.458Z,45.28
2019-04-21T01:27:11.142Z,45.13
2019-04-21T01:29:58.413Z,45.11
2019-04-21T01:32:39.047Z,44.94
2019-04-21T01:34:45.556Z,44.81
2019-04-21T01:37:15.912Z,44.70
2019-04-21T01:39:58.504Z,44.49
2019-04-21T01:42:15.867Z,44.42
2019-04-21T01:44:49.888Z,44.44
2019-04-21T01:47:10.239Z,44.62
2019-04-21T01:49:34.931Z,44.69
2019-04-21T01:52:26.941Z,44.61
2019-04-21T01:55:25.079Z,44.43
2019-04-21T01:58:06.018Z,44.58
2019-04-21T02:00:51.795Z,44.44
2019-04-21T02:03:37.454Z,44.14
2019-04-21T02:05:54.948Z,43.96
2019-04-21T02:08:11.207Z,44.04
2019-04-21T02:10:49.809Z,44.05
2019-04-21T02:13:11.828Z,44.12
2019-04-21T02:15:46.998Z,44.22
2019-04-21T02:18:13.483Z,44.13
2019-04-21T02:20:32.713Z,44.16
2019-04-21T02:23:34.745Z,44.13
2019-04-21T02:25:46.602Z,44.42
2019-04-21T02:28:24.494Z,44.49
2019-04-21T02:31:05.957Z,44.49
2019-04-21T02:36:04.830Z,44.52
2019-04-21T02:38:34.604Z,44.84
2019-04-21T02:43:36.514Z,44.39
2019-04-21T02:45:56.118Z,44.55
2019-04-21T02:53:30.570Z,44.77
2019-04-21T02:55:50.868Z,44.66
2019-04-21T02:58:41.645Z,44.64
2019-04-21T03:01:24.579Z,44.65
2019-04-21T03:04:04.917Z,44.92
2019-04-21T03:06:54.165Z,44.82
2019-04-21T03:09:18.302Z,45.05
2019-04-21T03:11:49.809Z,45.31
2019-04-21T03:14:16.065Z,45.50
2019-04-21T03:16:40.453Z,45.65
2019-04-21T03:19:33.152Z,45.81
2019-04-21T03:21:48.920Z,45.63
2019-04-21T03:24:24.700Z,45.80
2019-04-21T03:27:01.048Z,45.83
2019-04-21T03:29:22.773Z,46.31
2019-04-21T03:37:02.734Z,46.97
2019-04-21T03:39:09.550Z,47.24
2019-04-21T03:41:52.586Z,47.02
2019-04-21T03:46:43.870Z,47.32
2019-04-21T03:49:28.139Z,47.43
2019-04-21T03:51:37.456Z,47.74
2019-04-21T03:59:09.502Z,48.06
2019-04-21T04:04:56.892Z,47.67
2019-04-21T04:10:07.698Z,47.89
2019-04-21T04:12:36.571Z,48.24
2019-04-21T04:17:38.737Z,48.00
2019-04-21T04:20:09.028Z,48.06
2019-04-21T04:22:41.265Z,48.55
2019-04-21T04:25:19.167Z,48.47
2019-04-21T04:27:51.297Z,48.68
2019-04-21T04:30:21.679Z,48.77
2019-04-21T04:32:34.705Z,48.77
2019-04-21T04:35:10.350Z,49.00
2019-04-21T04:40:20.905Z,48.82
2019-04-21T04:42:55.947Z,48.46
2019-04-21T04:45:34.595Z,48.91
2019-04-21T04:48:03.523Z,49.27
2019-04-21T04:50:41.070Z,49.71
2019-04-21T04:55:38.945Z,48.56
2019-04-21T04:58:07.542Z,48.22
2019-04-21T05:00:48.055Z,48.76
2019-04-21T05:03:05.466Z,49.48
2019-04-21T05:06:42.449Z,49.17
2019-04-21T05:14:13.476Z,48.11
2019-04-21T05:16:56.013Z,48.75
2019-04-21T05:19:20.902Z,48.37
2019-04-21T05:22:04.941Z,47.64
2019-04-21T05:24:09.727Z,47.79
2019-04-21T05:26:33.169Z,47.43
2019-04-21T05:29:04.274Z,48.11
2019-04-21T05:32:12.834Z,47.41
2019-04-21T05:34:28.767Z,47.23
2019-04-21T05:37:20.203Z,47.25
2019-04-21T05:39:57.851Z,47.82
2019-04-21T05:42:27.423Z,47.35
2019-04-21T05:45:16.067Z,47.18
2019-04-21T05:47:57.866Z,47.63
2019-04-21T05:50:20.508Z,46.77
2019-04-21T05:52:53.516Z,46.55
2019-04-21T05:55:35.954Z,46.31
2019-04-21T05:58:02.659Z,46.26
2019-04-21T06:00:54.627Z,45.93
2019-04-21T06:03:05.404Z,44.41
2019-04-21T06:08:10.373Z,46.34
2019-04-21T06:10:43.650Z,45.76
2019-04-21T06:13:05.808Z,45.42
2019-04-21T06:15:36.124Z,45.36
2019-04-21T06:18:05.038Z,44.39
2019-04-21T06:20:37.055Z,43.43
2019-04-21T06:23:03.077Z,42.84
2019-04-21T06:28:03.563Z,41.99
2019-04-21T06:30:45.508Z,42.24
2019-04-21T06:33:01.892Z,42.13
2019-04-21T06:36:12.287Z,42.18
2019-04-21T06:38:54.491Z,41.39
2019-04-21T06:41:13.494Z,42.23
2019-04-21T06:43:49.974Z,41.13
2019-04-21T06:46:10.913Z,40.70
2019-04-21T06:48:42.680Z,41.05
2019-04-21T06:51:16.699Z,40.83
2019-04-21T06:53:44.373Z,40.73
2019-04-21T06:56:15.462Z,40.71
2019-04-21T06:58:40.029Z,39.94
2019-04-21T07:01:10.280Z,40.74
2019-04-21T07:03:40.476Z,40.67
2019-04-21T07:06:08.176Z,39.56
2019-04-21T07:08:44.687Z,39.20
2019-04-21T07:11:03.535Z,38.98
2019-04-21T07:13:31.233Z,38.97
2019-04-21T07:16:07.263Z,38.59
2019-04-21T07:18:36.487Z,38.62
2019-04-21T07:21:00.065Z,38.84
2019-04-21T07:23:32.361Z,37.68
2019-04-21T07:26:00.461Z,37.76
2019-04-21T07:28:31.945Z,36.93
2019-04-21T07:31:07.941Z,36.27
2019-04-21T07:35:55.471Z,35.33
2019-04-21T07:38:22.363Z,34.83
2019-04-21T07:40:48.368Z,34.44
2019-04-21T07:43:18.370Z,34.70
2019-04-21T07:45:45.909Z,34.15
2019-04-21T07:48:24.714Z,33.85
2019-04-21T07:51:17.367Z,32.79
2019-04-21T07:53:55.724Z,32.17
2019-04-21T07:56:07.298Z,31.67
2019-04-21T07:58:53.463Z,30.33
2019-04-21T08:03:49.076Z,29.70
2019-04-21T08:06:22.783Z,30.29
2019-04-21T08:08:51.053Z,30.21
2019-04-21T08:11:16.421Z,29.71
2019-04-21T08:13:47.313Z,29.24
2019-04-21T08:16:22.471Z,28.20
2019-04-21T08:18:49.547Z,28.18
2019-04-21T08:21:15.262Z,28.39
2019-04-21T08:23:43.610Z,27.52
2019-04-21T08:26:17.401Z,28.24
2019-04-21T08:28:47.478Z,27.87
2019-04-21T08:31:16.877Z,27.77
2019-04-21T08:33:56.466Z,27.35
2019-04-21T08:36:25.445Z,28.15
2019-04-21T08:38:51.490Z,28.09
2019-04-21T08:41:15.232Z,28.20
2019-04-21T08:46:12.970Z,27.54
2019-04-21T08:48:43.966Z,26.92
2019-04-21T08:51:26.154Z,27.38
2019-04-21T08:53:42.771Z,27.20
2019-04-21T08:56:18.192Z,27.87
2019-04-21T08:59:02.274Z,27.12
2019-04-21T09:01:55.488Z,26.94
2019-04-21T09:04:24.524Z,27.61
2019-04-21T09:06:58.864Z,27.09
2019-04-21T09:09:23.661Z,25.70
2019-04-21T09:11:55.333Z,25.88
2019-04-21T09:14:18.894Z,25.51
2019-04-21T09:16:47.265Z,26.00
2019-04-21T09:19:14.195Z,24.86
2019-04-21T09:21:49.926Z,25.21
2019-04-21T09:24:16.189Z,25.31
2019-04-21T09:26:40.653Z,24.88
2019-04-21T09:29:05.490Z,24.40
2019-04-21T09:31:33.945Z,25.07
2019-04-21T09:34:02.329Z,24.19
2019-04-21T09:36:36.217Z,24.40
2019-04-21T09:39:03.854Z,23.56
2019-04-21T09:41:26.353Z,24.37
2019-04-21T09:43:57.583Z,22.62
2019-04-21T09:46:35.409Z,22.72
2019-04-21T09:49:04.150Z,22.60
2019-04-21T09:51:28.493Z,21.33
2019-04-21T09:54:08.328Z,20.85
2019-04-21T09:56:40.683Z,20.03
2019-04-21T09:59:10.116Z,19.44
2019-04-21T10:01:46.988Z,19.28
2019-04-21T10:04:18.678Z,19.32
2019-04-21T10:06:54.461Z,17.90
2019-04-21T10:09:33.341Z,18.03
2019-04-21T10:12:03.767Z,17.24
2019-04-21T10:14:57.415Z,16.83
2019-04-21T10:17:47.420Z,17.16
2019-04-21T10:20:24.395Z,16.68
2019-04-21T10:22:53.180Z,16.33
2019-04-21T10:25:20.827Z,16.28
2019-04-21T10:27:49.492Z,15.64
2019-04-21T10:30:17.498Z,15.57
2019-04-21T10:33:37.192Z,15.00
2019-04-21T10:36:44.853Z,15.77
2019-04-21T10:39:31.619Z,14.93
2019-04-21T10:41:59.611Z,14.50
2019-04-21T10:45:05.402Z,12.92
2019-04-21T10:47:38.878Z,12.15
2019-04-21T10:50:29.493Z,12.05
2019-04-21T10:53:04.912Z,12.64
2019-04-21T10:55:48.570Z,12.00
2019-04-21T10:58:14.424Z,10.70
2019-04-21T11:00:46.154Z,12.12
2019-04-21T11:03:46.725Z,12.33
2019-04-21T11:06:16.927Z,12.78
2019-04-21T11:08:48.884Z,12.91
2019-04-21T11:11:14.156Z,13.74
2019-04-21T11:13:44.573Z,14.56
2019-04-21T11:16:13.087Z,14.49
2019-04-21T11:18:41.956Z,13.73
2019-04-21T11:21:11.176Z,13.34
2019-04-21T11:23:38.289Z,12.57
2019-04-21T11:26:06.611Z,10.27
2019-04-21T11:28:35.035Z,9.22
2019-04-21T11:31:02.662Z,8.54
2019-04-21T11:33:45.247Z,9.32
2019-04-21T11:36:15.711Z,10.47
2019-04-21T11:39:09.839Z,10.27
2019-04-21T11:41:27.769Z,11.21
2019-04-21T11:43:57.246Z,11.01
2019-04-21T11:46:26.644Z,9.94
2019-04-21T11:49:06.431Z,9.50
2019-04-21T11:51:35.243Z,9.63
2019-04-21T11:54:02.353Z,10.59
2019-04-21T11:56:37.083Z,11.31
2019-04-21T11:59:08.045Z,11.68
2019-04-21T12:01:35.939Z,12.36
2019-04-21T12:04:09.793Z,12.99
2019-04-21T12:06:47.032Z,12.11
2019-04-21T12:09:12.099Z,12.65
2019-04-21T12:11:39.408Z,12.15
2019-04-21T12:14:07.918Z,12.36
2019-04-21T12:16:37.083Z,12.26
2019-04-21T12:19:07.188Z,13.52
2019-04-21T12:21:46.609Z,13.06
2019-04-21T12:24:04.733Z,12.29
2019-04-21T12:26:31.926Z,10.68
2019-04-21T12:29:08.086Z,11.01
2019-04-21T12:31:57.211Z,11.17
2019-04-21T12:34:25.930Z,12.41
2019-04-21T12:36:53.291Z,11.47
2019-04-21T12:39:20.889Z,11.46
2019-04-21T12:41:48.863Z,10.99
2019-04-21T12:44:16.495Z,11.12
2019-04-21T12:46:47.747Z,10.29
2019-04-21T12:49:15.950Z,10.85
2019-04-21T12:51:46.090Z,10.47
2019-04-21T12:54:21.670Z,10.35
2019-04-21T12:57:01.451Z,10.99
2019-04-21T12:59:32.465Z,12.20
2019-04-21T13:01:59.052Z,12.30
2019-04-21T13:04:27.831Z,11.70
2019-04-21T13:06:57.333Z,10.99
2019-04-21T13:09:27.444Z,10.46
2019-04-21T13:11:53.644Z,10.82
2019-04-21T13:14:23.740Z,9.94
2019-04-21T13:16:52.587Z,9.57
2019-04-21T13:19:20.970Z,9.31
2019-04-21T13:21:52.058Z,9.55
2019-04-21T13:24:19.991Z,9.30
2019-04-21T13:26:53.598Z,8.97
2019-04-21T13:29:18.414Z,8.84
2019-04-21T13:31:46.102Z,8.42
2019-04-21T13:34:13.879Z,9.39
2019-04-21T13:36:43.578Z,9.37
2019-04-21T13:42:34.210Z,8.69
2019-04-21T13:44:57.909Z,9.60
2019-04-21T13:47:26.583Z,10.10
2019-04-21T13:50:02.938Z,9.33
2019-04-21T13:52:31.016Z,8.85
2019-04-21T13:55:01.409Z,9.06
2019-04-21T13:57:38.701Z,8.69
2019-04-21T14:00:08.960Z,9.36
2019-04-21T14:02:38.656Z,9.41
2019-04-21T14:05:08.565Z,9.67
2019-04-21T14:07:38.483Z,10.35
2019-04-21T14:10:08.446Z,10.64
2019-04-21T14:12:36.188Z,10.63
2019-04-21T14:15:15.558Z,11.19
2019-04-21T14:17:50.943Z,11.44
2019-04-21T14:20:19.553Z,10.56
2019-04-21T14:22:46.676Z,11.16
2019-04-21T14:25:15.351Z,10.09
2019-04-21T14:27:44.306Z,10.20
2019-04-21T14:30:12.541Z,9.19
2019-04-21T14:32:40.172Z,8.58
2019-04-21T14:35:10.940Z,8.46
2019-04-21T14:37:42.460Z,8.58
2019-04-21T14:40:14.600Z,9.06
2019-04-21T14:42:40.213Z,9.18
2019-04-21T14:45:09.895Z,9.24
2019-04-21T14:47:53.912Z,9.61
2019-04-21T14:50:48.087Z,9.58
2019-04-21T14:53:26.059Z,9.89
2019-04-21T14:55:55.316Z,9.18
2019-04-21T14:58:23.403Z,8.51
2019-04-21T15:00:57.912Z,8.78
2019-04-21T15:03:25.868Z,8.27
2019-04-21T15:05:55.819Z,8.90
2019-04-21T15:08:22.884Z,8.90
2019-04-21T15:10:50.291Z,9.47
2019-04-21T15:13:17.461Z,8.77
2019-04-21T15:15:45.689Z,9.20
2019-04-21T15:18:12.979Z,9.22
2019-04-21T15:20:42.789Z,9.82
2019-04-21T15:23:14.993Z,10.20
2019-04-21T15:25:43.894Z,9.42
2019-04-21T15:28:17.875Z,8.72
2019-04-21T15:31:08.382Z,10.09
2019-04-21T15:33:41.287Z,10.66
2019-04-21T15:36:11.267Z,11.49
2019-04-21T15:38:45.772Z,11.13
2019-04-21T15:41:22.666Z,10.68
2019-04-21T15:44:01.273Z,11.12
2019-04-21T15:46:34.739Z,11.68
2019-04-21T15:49:04.950Z,11.51
2019-04-21T15:51:32.112Z,11.34
2019-04-21T15:54:02.705Z,10.83
2019-04-21T15:56:51.075Z,10.78
2019-04-21T15:59:56.062Z,10.37
2019-04-21T16:02:44.520Z,9.91
2019-04-21T16:05:13.013Z,10.15
2019-04-21T16:07:40.408Z,10.88
2019-04-21T16:10:11.634Z,10.67
2019-04-21T16:12:40.149Z,9.97
2019-04-21T16:15:08.535Z,9.84
2019-04-21T16:17:37.306Z,11.02
2019-04-21T16:20:06.159Z,11.20
2019-04-21T16:22:34.706Z,11.40
2019-04-21T16:25:03.354Z,11.22
2019-04-21T16:27:30.541Z,11.46
2019-04-21T16:29:57.716Z,11.84
2019-04-21T16:32:26.027Z,11.65
2019-04-21T16:35:01.523Z,12.59
2019-04-21T16:37:23.612Z,12.88
2019-04-21T16:39:51.651Z,12.27
2019-04-21T16:42:20.347Z,11.94
2019-04-21T16:44:48.915Z,11.58
2019-04-21T16:47:19.399Z,12.13
2019-04-21T16:49:47.554Z,12.24
2019-04-21T16:52:18.360Z,12.21
2019-04-21T16:55:13.182Z,11.96
2019-04-21T16:57:43.896Z,12.25
2019-04-21T17:00:26.965Z,12.38
2019-04-21T17:02:46.577Z,12.90
2019-04-21T17:05:14.372Z,12.98
2019-04-21T17:07:42.907Z,12.85
2019-04-21T17:10:12.817Z,13.08
2019-04-21T17:12:41.717Z,13.85
2019-04-21T17:15:32.285Z,13.92
2019-04-21T17:18:04.280Z,13.83
2019-04-21T17:20:27.864Z,13.81
2019-04-21T17:22:44.096Z,14.14
2019-04-21T17:25:18.129Z,14.69
2019-04-21T17:27:56.890Z,14.75
2019-04-21T17:30:36.474Z,15.53
2019-04-21T17:33:05.655Z,15.56
2019-04-21T17:35:35.236Z,15.88
2019-04-21T17:38:03.887Z,16.29
2019-04-21T17:40:33.784Z,16.41
2019-04-21T17:43:07.565Z,16.45
2019-04-21T17:45:35.130Z,16.27
2019-04-21T17:48:06.006Z,16.48
2019-04-21T17:50:57.561Z,16.97
2019-04-21T17:53:38.219Z,17.54
2019-04-21T17:56:23.473Z,17.95
2019-04-21T17:58:58.465Z,18.55
2019-04-21T18:01:32.254Z,18.67
2019-04-21T18:04:06.290Z,18.89
2019-04-21T18:06:30.947Z,19.10
2019-04-21T18:09:12.627Z,19.65
2019-04-21T18:11:28.948Z,20.12
2019-04-21T18:13:41.996Z,20.94
2019-04-21T18:16:20.705Z,20.92
2019-04-21T18:18:46.651Z,21.52
2019-04-21T18:21:22.538Z,21.95
2019-04-21T18:24:04.968Z,22.62
2019-04-21T18:26:35.020Z,23.08
2019-04-21T18:28:53.837Z,23.62
2019-04-21T18:31:20.930Z,24.22
2019-04-21T18:34:03.502Z,24.42
2019-04-21T18:36:34.923Z,24.59
2019-04-21T18:39:38.228Z,24.97
2019-04-21T18:42:17.494Z,25.10
2019-04-21T18:45:28.442Z,25.52
2019-04-21T18:47:48.931Z,25.54
2019-04-21T18:50:24.157Z,25.68
2019-04-21T18:53:13.033Z,25.63
2019-04-21T18:55:37.331Z,25.86
2019-04-21T18:57:59.055Z,26.40
2019-04-21T19:00:32.787Z,26.50
2019-04-21T19:02:58.281Z,26.80
2019-04-21T19:05:27.903Z,27.21
2019-04-21T19:08:15.173Z,27.45
2019-04-21T19:10:53.666Z,28.08
2019-04-21T19:16:03.250Z,27.87
2019-04-21T19:20:56.706Z,28.43
2019-04-21T19:23:33.903Z,28.96
2019-04-21T19:26:11.089Z,29.53
2019-04-21T19:28:26.971Z,30.38
2019-04-21T19:30:57.653Z,30.44
2019-04-21T19:33:22.437Z,30.80
2019-04-21T19:35:37.269Z,30.79
2019-04-21T19:38:11.967Z,31.42
2019-04-21T19:40:52.226Z,31.52
2019-04-21T19:43:31.468Z,31.46
2019-04-21T19:45:54.246Z,31.56
2019-04-21T19:48:25.213Z,31.42
2019-04-21T19:50:57.815Z,31.77
2019-04-21T19:53:21.350Z,31.88
2019-04-21T19:55:36.181Z,31.60
2019-04-21T19:58:03.528Z,31.87
2019-04-21T20:00:32.956Z,31.66
2019-04-21T20:03:06.137Z,31.54
2019-04-21T20:05:41.799Z,31.58
2019-04-21T20:08:17.691Z,31.97
2019-04-21T20:10:48.498Z,32.38
2019-04-21T20:13:25.968Z,32.91
2019-04-21T20:15:51.068Z,33.00
2019-04-21T20:18:16.434Z,33.41
2019-04-21T20:20:33.029Z,33.78
2019-04-21T20:23:08.817Z,33.77
2019-04-21T20:25:41.614Z,34.47
2019-04-21T20:28:14.761Z,34.92
2019-04-21T20:30:49.003Z,35.20
2019-04-21T20:33:41.664Z,35.31
2019-04-21T20:36:09.682Z,34.96
2019-04-21T20:38:16.029Z,34.42
2019-04-21T20:40:45.769Z,34.10
2019-04-21T20:43:28.478Z,34.12
2019-04-21T20:46:00.503Z,33.96
2019-04-21T20:48:18.231Z,34.92
2019-04-21T20:50:57.260Z,35.18
2019-04-21T20:53:27.488Z,35.65
2019-04-21T20:55:58.143Z,36.19
2019-04-21T20:58:31.887Z,36.72
2019-04-21T21:01:20.871Z,37.13
2019-04-21T21:03:34.885Z,37.56
2019-04-21T21:06:00.317Z,38.00
2019-04-21T21:08:36.001Z,38.65
2019-04-21T21:10:58.710Z,39.09
2019-04-21T21:13:39.475Z,39.54
2019-04-21T21:16:12.143Z,40.02
2019-04-21T21:18:48.666Z,40.59
2019-04-21T21:21:09.566Z,40.07
2019-04-21T21:23:38.781Z,41.03
2019-04-21T21:26:09.860Z,41.24
2019-04-21T21:28:38.026Z,41.44
2019-04-21T21:31:07.422Z,41.23
2019-04-21T21:33:46.724Z,41.32
2019-04-21T21:36:09.127Z,41.88
2019-04-21T21:38:36.317Z,41.91
2019-04-21T21:40:57.210Z,41.79
2019-04-21T21:43:21.509Z,41.59
2019-04-21T21:45:51.905Z,41.34
2019-04-21T21:48:31.849Z,42.03
2019-04-21T21:50:56.620Z,42.96
2019-04-21T21:53:19.770Z,43.01
2019-04-21T21:55:46.715Z,42.54
2019-04-21T21:58:15.642Z,42.42
2019-04-21T22:00:49.969Z,42.04
2019-04-21T22:03:24.444Z,41.81
2019-04-21T22:05:53.550Z,42.06
2019-04-21T22:08:14.437Z,42.01
2019-04-21T22:10:43.186Z,42.29
2019-04-21T22:13:17.762Z,42.28
2019-04-21T22:15:43.576Z,42.26
2019-04-21T22:18:28.521Z,43.51
2019-04-21T22:20:55.040Z,42.86
2019-04-21T22:23:13.965Z,42.38
2019-04-21T22:25:41.844Z,42.27
2019-04-21T22:28:09.478Z,42.60
2019-04-21T22:30:42.729Z,41.81
2019-04-21T22:33:08.928Z,40.91
2019-04-21T22:35:42.494Z,39.90
2019-04-21T22:38:21.129Z,39.31
2019-04-21T22:40:47.778Z,39.32
2019-04-21T22:43:11.386Z,39.08
2019-04-21T22:45:31.570Z,38.70
2019-04-21T22:48:13.541Z,38.53
2019-04-21T22:50:35.730Z,38.57
2019-04-21T22:53:07.152Z,38.50
2019-04-21T22:55:35.086Z,38.79
2019-04-21T22:58:05.480Z,38.92
2019-04-21T23:00:42.915Z,39.01
2019-04-21T23:03:09.874Z,38.78
2019-04-21T23:05:36.282Z,38.86
2019-04-21T23:08:03.440Z,39.70
2019-04-21T23:10:29.521Z,39.77
2019-04-21T23:12:59.550Z,39.85
2019-04-21T23:15:34.605Z,39.41
2019-04-21T23:18:12.072Z,38.86
2019-04-21T23:20:46.176Z,38.72
2019-04-21T23:23:16.362Z,38.40
2019-04-21T23:25:42.557Z,38.31
2019-04-21T23:28:11.513Z,38.43
2019-04-21T23:30:50.291Z,38.57
2019-04-21T23:33:02.425Z,38.60
2019-04-21T23:35:30.413Z,38.64
2019-04-21T23:37:59.729Z,38.85
2019-04-21T23:40:25.456Z,38.88
2019-04-21T23:42:51.301Z,39.02
2019-04-21T23:45:25.252Z,39.32
2019-04-21T23:48:10.714Z,39.54
2019-04-21T23:50:35.255Z,39.81
2019-04-21T23:52:55.421Z,40.54
2019-04-21T23:55:23.249Z,40.58
2019-04-21T23:58:03.386Z,40.68
